AMF876 KSMX-KBUR
Flight info
| Callsign | AMF876 |
|---|---|
| Flight time | 0h 30m |
| Altitude | 15000 |
| Route | RZS V386 OHIGH FERN7 |
| Aircraft | SF34/M-SDFGR/S |
Departure
| Time | 2026-04-21 19:28 |
|---|---|
| Airport | Santa Maria Public Airport Captain G Allan Hancock Field (KSMX) |
Arrival
| Time | 2026-04-21 19:58 |
|---|---|
| Airport | Hollywood Burbank/Bob Hope Airport (KBUR) |
| Time | Latitude | Longitude | Altitude | Speed | Heading |
|---|---|---|---|---|---|
| 2026-04-21 19:20 | 34.89420 | -120.44329 | 259 ft | 0 kts | 131° |
| 2026-04-21 19:26 | 34.89419 | -120.44328 | 259 ft | 0 kts | 140° |
| 2026-04-21 19:27 | 34.89406 | -120.44347 | 259 ft | 11 kts | 269° |
| 2026-04-21 19:27 | 34.89408 | -120.44486 | 257 ft | 15 kts | 256° |
| 2026-04-21 19:27 | 34.89314 | -120.44534 | 257 ft | 20 kts | 222° |
| 2026-04-21 19:27 | 34.89375 | -120.44697 | 253 ft | 38 kts | 310° |
| 2026-04-21 19:28 | 34.89727 | -120.45128 | 232 ft | 105 kts | 315° |
| 2026-04-21 19:28 | 34.90365 | -120.45885 | 441 ft | 139 kts | 311° |
| 2026-04-21 19:28 | 34.91067 | -120.46678 | 1144 ft | 138 kts | 319° |
| 2026-04-21 19:28 | 34.92010 | -120.46937 | 1854 ft | 147 kts | 2° |
| 2026-04-21 19:29 | 34.92959 | -120.46439 | 2529 ft | 154 kts | 43° |
| 2026-04-21 19:29 | 34.93480 | -120.45347 | 3331 ft | 148 kts | 80° |
| 2026-04-21 19:29 | 34.93400 | -120.44128 | 4052 ft | 146 kts | 115° |
| 2026-04-21 19:29 | 34.92781 | -120.43186 | 4726 ft | 143 kts | 151° |
| 2026-04-21 19:30 | 34.91849 | -120.42834 | 5398 ft | 140 kts | 183° |
| 2026-04-21 19:30 | 34.90931 | -120.43149 | 6122 ft | 137 kts | 211° |
| 2026-04-21 19:30 | 34.90070 | -120.43596 | 6798 ft | 138 kts | 201° |
| 2026-04-21 19:30 | 34.89162 | -120.43976 | 7463 ft | 138 kts | 201° |
| 2026-04-21 19:31 | 34.88249 | -120.44366 | 8124 ft | 139 kts | 202° |
| 2026-04-21 19:31 | 34.87332 | -120.44760 | 8772 ft | 140 kts | 201° |
| 2026-04-21 19:31 | 34.86364 | -120.44884 | 9422 ft | 146 kts | 171° |
| 2026-04-21 19:31 | 34.85452 | -120.44269 | 10071 ft | 155 kts | 147° |
| 2026-04-21 19:32 | 34.84582 | -120.43539 | 10724 ft | 149 kts | 160° |
| 2026-04-21 19:32 | 34.83717 | -120.42896 | 11414 ft | 149 kts | 158° |
| 2026-04-21 19:32 | 34.82841 | -120.42176 | 12101 ft | 148 kts | 159° |
| 2026-04-21 19:32 | 34.81992 | -120.41473 | 12765 ft | 147 kts | 161° |
| 2026-04-21 19:33 | 34.81426 | -120.41010 | 13175 ft | 149 kts | 161° |
| 2026-04-21 19:33 | 34.80277 | -120.40060 | 14023 ft | 151 kts | 161° |
| 2026-04-21 19:33 | 34.79406 | -120.39351 | 14636 ft | 151 kts | 162° |
| 2026-04-21 19:33 | 34.78493 | -120.38609 | 14974 ft | 171 kts | 161° |
| 2026-04-21 19:34 | 34.77406 | -120.37729 | 15013 ft | 205 kts | 159° |
| 2026-04-21 19:34 | 34.76141 | -120.36678 | 15016 ft | 233 kts | 157° |
| 2026-04-21 19:34 | 34.74733 | -120.35516 | 15026 ft | 255 kts | 156° |
| 2026-04-21 19:34 | 34.73217 | -120.34269 | 15027 ft | 270 kts | 156° |
| 2026-04-21 19:35 | 34.71631 | -120.32959 | 15036 ft | 280 kts | 155° |
| 2026-04-21 19:35 | 34.68332 | -120.30248 | 15020 ft | 290 kts | 155° |
| 2026-04-21 19:35 | 34.66662 | -120.28874 | 15027 ft | 292 kts | 153° |
| 2026-04-21 19:36 | 34.65249 | -120.26980 | 15021 ft | 314 kts | 133° |
| 2026-04-21 19:36 | 34.64337 | -120.24506 | 15015 ft | 330 kts | 114° |
| 2026-04-21 19:36 | 34.63694 | -120.21840 | 15016 ft | 325 kts | 118° |
| 2026-04-21 19:36 | 34.62907 | -120.19275 | 15008 ft | 324 kts | 121° |
| 2026-04-21 19:37 | 34.62118 | -120.16708 | 15011 ft | 325 kts | 118° |
| 2026-04-21 19:37 | 34.61428 | -120.14086 | 15008 ft | 327 kts | 116° |
| 2026-04-21 19:37 | 34.60714 | -120.11479 | 15010 ft | 324 kts | 119° |
| 2026-04-21 19:37 | 34.59944 | -120.08905 | 15010 ft | 326 kts | 118° |
| 2026-04-21 19:38 | 34.59229 | -120.06276 | 15008 ft | 328 kts | 117° |
| 2026-04-21 19:38 | 34.58496 | -120.03655 | 15009 ft | 328 kts | 118° |
| 2026-04-21 19:38 | 34.57991 | -120.01927 | 15008 ft | 329 kts | 118° |
| 2026-04-21 19:38 | 34.57011 | -119.98408 | 15009 ft | 329 kts | 117° |
| 2026-04-21 19:39 | 34.56265 | -119.95792 | 15009 ft | 327 kts | 118° |
| 2026-04-21 19:39 | 34.55515 | -119.93179 | 15009 ft | 329 kts | 118° |
| 2026-04-21 19:39 | 34.54785 | -119.90559 | 15010 ft | 328 kts | 117° |
| 2026-04-21 19:39 | 34.54042 | -119.87949 | 15013 ft | 327 kts | 118° |
| 2026-04-21 19:40 | 34.53305 | -119.85381 | 15012 ft | 327 kts | 117° |
| 2026-04-21 19:40 | 34.52570 | -119.82772 | 15014 ft | 327 kts | 117° |
| 2026-04-21 19:40 | 34.51830 | -119.80158 | 15017 ft | 327 kts | 118° |
| 2026-04-21 19:40 | 34.51076 | -119.77552 | 15018 ft | 329 kts | 118° |
| 2026-04-21 19:41 | 34.50534 | -119.74832 | 14948 ft | 338 kts | 108° |
| 2026-04-21 19:41 | 34.50137 | -119.71995 | 14703 ft | 341 kts | 108° |
| 2026-04-21 19:41 | 34.49701 | -119.69205 | 14444 ft | 336 kts | 111° |
| 2026-04-21 19:41 | 34.49136 | -119.66444 | 14201 ft | 339 kts | 113° |
| 2026-04-21 19:42 | 34.48619 | -119.63632 | 13951 ft | 344 kts | 109° |
| 2026-04-21 19:42 | 34.48207 | -119.60780 | 13699 ft | 342 kts | 108° |
| 2026-04-21 19:42 | 34.47755 | -119.57967 | 13451 ft | 338 kts | 110° |
| 2026-04-21 19:42 | 34.47233 | -119.55202 | 13210 ft | 336 kts | 110° |
| 2026-04-21 19:43 | 34.46778 | -119.52408 | 12969 ft | 339 kts | 108° |
| 2026-04-21 19:43 | 34.46322 | -119.49598 | 12722 ft | 340 kts | 109° |
| 2026-04-21 19:43 | 34.45813 | -119.46797 | 12472 ft | 340 kts | 110° |
| 2026-04-21 19:43 | 34.45349 | -119.43995 | 12222 ft | 338 kts | 108° |
| 2026-04-21 19:44 | 34.44886 | -119.41215 | 11967 ft | 334 kts | 110° |
| 2026-04-21 19:44 | 34.44424 | -119.38606 | 11717 ft | 316 kts | 110° |
| 2026-04-21 19:44 | 34.43961 | -119.35958 | 11464 ft | 325 kts | 108° |
| 2026-04-21 19:44 | 34.43540 | -119.33344 | 11213 ft | 295 kts | 108° |
| 2026-04-21 19:45 | 34.43124 | -119.30984 | 10952 ft | 292 kts | 110° |
| 2026-04-21 19:45 | 34.42674 | -119.28509 | 10701 ft | 309 kts | 108° |
| 2026-04-21 19:45 | 34.42259 | -119.25939 | 10491 ft | 313 kts | 107° |
| 2026-04-21 19:45 | 34.41807 | -119.23342 | 10290 ft | 317 kts | 108° |
| 2026-04-21 19:46 | 34.41344 | -119.20771 | 10098 ft | 315 kts | 106° |
| 2026-04-21 19:46 | 34.40951 | -119.18324 | 9875 ft | 278 kts | 107° |
| 2026-04-21 19:46 | 34.40689 | -119.16835 | 9748 ft | 269 kts | 107° |
| 2026-04-21 19:46 | 34.40288 | -119.14648 | 9539 ft | 264 kts | 107° |
| 2026-04-21 19:47 | 34.39902 | -119.12362 | 9336 ft | 289 kts | 105° |
| 2026-04-21 19:47 | 34.39338 | -119.09114 | 9076 ft | 304 kts | 105° |
| 2026-04-21 19:47 | 34.38889 | -119.06600 | 8880 ft | 308 kts | 104° |
| 2026-04-21 19:47 | 34.38462 | -119.04049 | 8690 ft | 309 kts | 104° |
| 2026-04-21 19:48 | 34.38182 | -119.02417 | 8542 ft | 278 kts | 105° |
| 2026-04-21 19:48 | 34.37756 | -119.00074 | 8347 ft | 293 kts | 105° |
| 2026-04-21 19:48 | 34.37332 | -118.97630 | 8148 ft | 296 kts | 104° |
| 2026-04-21 19:48 | 34.36909 | -118.95165 | 7951 ft | 301 kts | 104° |
| 2026-04-21 19:49 | 34.36465 | -118.92683 | 7754 ft | 303 kts | 104° |
| 2026-04-21 19:49 | 34.36030 | -118.90187 | 7560 ft | 303 kts | 104° |
| 2026-04-21 19:49 | 34.35585 | -118.87840 | 7354 ft | 265 kts | 112° |
| 2026-04-21 19:49 | 34.34629 | -118.86105 | 7146 ft | 241 kts | 143° |
| 2026-04-21 19:50 | 34.33057 | -118.85230 | 6945 ft | 261 kts | 172° |
| 2026-04-21 19:50 | 34.31212 | -118.85163 | 6747 ft | 271 kts | 176° |
| 2026-04-21 19:50 | 34.29412 | -118.84394 | 6547 ft | 283 kts | 149° |
| 2026-04-21 19:50 | 34.27854 | -118.82922 | 6348 ft | 285 kts | 145° |
| 2026-04-21 19:51 | 34.26263 | -118.81702 | 6153 ft | 250 kts | 155° |
| 2026-04-21 19:51 | 34.24756 | -118.80822 | 5945 ft | 235 kts | 156° |
| 2026-04-21 19:51 | 34.23323 | -118.79920 | 5764 ft | 230 kts | 153° |
| 2026-04-21 19:51 | 34.21945 | -118.78959 | 5578 ft | 228 kts | 153° |
| 2026-04-21 19:52 | 34.20568 | -118.78029 | 5391 ft | 226 kts | 148° |
| 2026-04-21 19:52 | 34.19566 | -118.76571 | 5220 ft | 231 kts | 115° |
| 2026-04-21 19:52 | 34.19389 | -118.74655 | 5042 ft | 234 kts | 81° |
| 2026-04-21 19:52 | 34.20025 | -118.72854 | 4867 ft | 233 kts | 64° |
| 2026-04-21 19:53 | 34.20382 | -118.70976 | 4692 ft | 229 kts | 92° |
| 2026-04-21 19:53 | 34.20232 | -118.69056 | 4515 ft | 230 kts | 98° |
| 2026-04-21 19:53 | 34.20139 | -118.67138 | 4338 ft | 228 kts | 92° |
| 2026-04-21 19:53 | 34.20160 | -118.65219 | 4166 ft | 229 kts | 91° |
| 2026-04-21 19:54 | 34.20133 | -118.63299 | 3984 ft | 227 kts | 93° |
| 2026-04-21 19:54 | 34.20090 | -118.61393 | 3814 ft | 227 kts | 92° |
| 2026-04-21 19:54 | 34.20065 | -118.59528 | 3639 ft | 225 kts | 92° |
| 2026-04-21 19:54 | 34.20041 | -118.57607 | 3463 ft | 225 kts | 92° |
| 2026-04-21 19:55 | 34.20020 | -118.55716 | 3288 ft | 225 kts | 92° |
| 2026-04-21 19:55 | 34.19998 | -118.53838 | 3114 ft | 224 kts | 92° |
| 2026-04-21 19:55 | 34.19977 | -118.51965 | 3068 ft | 220 kts | 92° |
| 2026-04-21 19:55 | 34.19956 | -118.50105 | 2873 ft | 224 kts | 92° |
| 2026-04-21 19:56 | 34.19936 | -118.48257 | 2582 ft | 207 kts | 92° |
| 2026-04-21 19:56 | 34.19912 | -118.46696 | 2335 ft | 165 kts | 94° |
| 2026-04-21 19:56 | 34.19901 | -118.45374 | 2127 ft | 151 kts | 94° |
| 2026-04-21 19:56 | 34.19878 | -118.44134 | 1930 ft | 144 kts | 95° |
| 2026-04-21 19:57 | 34.19865 | -118.42931 | 1741 ft | 144 kts | 96° |
| 2026-04-21 19:57 | 34.19851 | -118.41736 | 1552 ft | 144 kts | 94° |
| 2026-04-21 19:57 | 34.19832 | -118.40528 | 1360 ft | 144 kts | 95° |
| 2026-04-21 19:57 | 34.19821 | -118.39304 | 1169 ft | 147 kts | 93° |
| 2026-04-21 19:58 | 34.19816 | -118.38077 | 963 ft | 140 kts | 97° |
| 2026-04-21 19:58 | 34.19781 | -118.36992 | 737 ft | 118 kts | 91° |
| 2026-04-21 19:58 | 34.19777 | -118.36153 | 703 ft | 62 kts | 89° |
| 2026-04-21 19:58 | 34.19767 | -118.35820 | 698 ft | 20 kts | 112° |
| 2026-04-21 19:59 | 34.19707 | -118.35814 | 700 ft | 8 kts | 194° |
| 2026-04-21 19:59 | 34.19638 | -118.35840 | 699 ft | 16 kts | 259° |
| 2026-04-21 19:59 | 34.19617 | -118.35950 | 701 ft | 0 kts | 213° |